sensor_id;sensor_type;location;lat;lon;timestamp;P1;durP1;ratioP1;P2;durP2;ratioP2
55142;SDS011;52300;44.828;20.416;2022-11-20T15:45:13;26.98;;;25.48;;
55142;SDS011;52300;44.828;20.416;2022-11-20T15:58:45;23.88;;;22.48;;
55142;SDS011;52300;44.828;20.416;2022-11-20T16:01:36;23.45;;;22.15;;
55142;SDS011;52300;44.828;20.416;2022-11-20T16:10:55;25.90;;;24.30;;
55142;SDS011;52300;44.828;20.416;2022-11-20T16:14:10;26.73;;;25.05;;
55142;SDS011;52300;44.828;20.416;2022-11-20T16:25:36;29.77;;;27.83;;
55142;SDS011;52300;44.828;20.416;2022-11-20T16:33:50;27.92;;;26.33;;
55142;SDS011;52300;44.828;20.416;2022-11-20T16:36:22;28.65;;;26.95;;
55142;SDS011;52300;44.828;20.416;2022-11-20T16:38:53;30.45;;;28.55;;
55142;SDS011;52300;44.828;20.416;2022-11-20T16:41:22;32.92;;;30.83;;
55142;SDS011;52300;44.828;20.416;2022-11-20T16:43:51;28.83;;;27.17;;
55142;SDS011;52300;44.828;20.416;2022-11-20T16:46:22;32.50;;;30.40;;
55142;SDS011;52300;44.828;20.416;2022-11-20T16:48:52;30.48;;;28.58;;
55142;SDS011;52300;44.828;20.416;2022-11-20T16:51:32;31.98;;;29.90;;
55142;SDS011;52300;44.828;20.416;2022-11-20T16:54:08;31.13;;;29.38;;
55142;SDS011;52300;44.828;20.416;2022-11-20T16:56:34;31.90;;;29.75;;
55142;SDS011;52300;44.828;20.416;2022-11-20T16:59:05;31.80;;;30.10;;
55142;SDS011;52300;44.828;20.416;2022-11-20T17:01:36;30.33;;;28.15;;
55142;SDS011;52300;44.828;20.416;2022-11-20T17:04:04;32.72;;;30.65;;
55142;SDS011;52300;44.828;20.416;2022-11-20T17:06:39;32.92;;;30.92;;
55142;SDS011;52300;44.828;20.416;2022-11-20T17:09:20;34.53;;;32.25;;
55142;SDS011;52300;44.828;20.416;2022-11-20T17:11:47;35.75;;;33.45;;
55142;SDS011;52300;44.828;20.416;2022-11-20T17:14:12;34.55;;;32.30;;
55142;SDS011;52300;44.828;20.416;2022-11-20T17:16:38;36.70;;;34.33;;
55142;SDS011;52300;44.828;20.416;2022-11-20T17:22:33;36.38;;;33.85;;
55142;SDS011;52300;44.828;20.416;2022-11-20T17:25:01;35.85;;;33.72;;
55142;SDS011;52300;44.828;20.416;2022-11-20T18:04:09;37.28;;;34.88;;
55142;SDS011;52300;44.828;20.416;2022-11-20T18:32:57;62.42;;;57.85;;
55142;SDS011;52300;44.828;20.416;2022-11-20T18:35:16;62.65;;;57.45;;
55142;SDS011;52300;44.828;20.416;2022-11-20T19:30:36;34.70;;;32.50;;
55142;SDS011;52300;44.828;20.416;2022-11-20T21:00:25;32.40;;;30.10;;
55142;SDS011;52300;44.828;20.416;2022-11-20T21:11:49;31.08;;;29.08;;
55142;SDS011;52300;44.828;20.416;2022-11-20T21:14:23;33.20;;;31.10;;
55142;SDS011;52300;44.828;20.416;2022-11-20T21:17:30;32.58;;;30.27;;
55142;SDS011;52300;44.828;20.416;2022-11-20T21:20:30;32.88;;;30.85;;
55142;SDS011;52300;44.828;20.416;2022-11-20T21:23:14;32.25;;;30.25;;
55142;SDS011;52300;44.828;20.416;2022-11-20T21:25:39;30.25;;;28.27;;
55142;SDS011;52300;44.828;20.416;2022-11-20T21:28:05;30.95;;;29.15;;
55142;SDS011;52300;44.828;20.416;2022-11-20T21:30:32;31.65;;;29.45;;
55142;SDS011;52300;44.828;20.416;2022-11-20T21:33:13;31.00;;;29.10;;
